createdAt,value
2022-07-27T00:01:09.960Z,12.40
2022-07-27T00:03:41.003Z,12.47
2022-07-27T00:06:09.540Z,12.20
2022-07-27T00:08:40.343Z,12.03
2022-07-27T00:11:09.195Z,11.23
2022-07-27T00:13:40.006Z,11.80
2022-07-27T00:16:08.475Z,11.63
2022-07-27T00:18:36.588Z,11.43
2022-07-27T00:21:06.356Z,11.60
2022-07-27T00:23:34.412Z,11.00
2022-07-27T00:26:02.453Z,12.13
2022-07-27T00:28:30.583Z,12.03
2022-07-27T00:30:58.711Z,10.40
2022-07-27T00:33:26.765Z,10.83
2022-07-27T00:35:55.117Z,11.70
2022-07-27T00:38:25.318Z,11.60
2022-07-27T00:40:54.046Z,11.27
2022-07-27T00:43:21.907Z,11.87
2022-07-27T00:45:49.829Z,11.60
2022-07-27T00:48:17.816Z,11.63
2022-07-27T00:50:47.524Z,12.10
2022-07-27T00:53:15.691Z,12.23
2022-07-27T00:55:45.427Z,11.47
2022-07-27T00:58:13.817Z,12.80
2022-07-27T01:00:41.949Z,13.07
2022-07-27T01:03:10.255Z,13.27
2022-07-27T01:05:42.471Z,12.23
2022-07-27T01:08:12.883Z,12.73
2022-07-27T01:10:41.203Z,12.47
2022-07-27T01:13:12.884Z,12.93
2022-07-27T01:15:41.531Z,11.53
2022-07-27T01:18:12.113Z,11.80
2022-07-27T01:20:41.573Z,12.37
2022-07-27T01:23:11.671Z,11.63
2022-07-27T01:25:41.956Z,11.47
2022-07-27T01:28:09.948Z,11.00
2022-07-27T01:30:37.927Z,12.27
2022-07-27T01:33:06.886Z,12.67
2022-07-27T01:35:35.100Z,11.93
2022-07-27T01:38:03.479Z,12.27
2022-07-27T01:40:34.650Z,11.70
2022-07-27T01:43:02.437Z,11.33
2022-07-27T01:45:30.429Z,12.53
2022-07-27T01:47:58.875Z,12.50
2022-07-27T01:50:27.022Z,12.83
2022-07-27T01:52:54.832Z,12.27
2022-07-27T01:55:23.162Z,12.00
2022-07-27T01:57:52.614Z,11.67
2022-07-27T02:00:20.706Z,12.10
2022-07-27T02:02:48.782Z,12.87
2022-07-27T02:05:16.903Z,11.97
2022-07-27T02:07:44.870Z,13.33
2022-07-27T02:10:13.696Z,12.80
2022-07-27T02:12:40.819Z,12.70
2022-07-27T02:15:15.291Z,11.20
2022-07-27T02:17:45.298Z,12.53
2022-07-27T02:20:13.734Z,13.10
2022-07-27T02:22:42.343Z,12.23
2022-07-27T02:25:12.122Z,12.60
2022-07-27T02:27:40.618Z,12.47
2022-07-27T02:30:09.322Z,12.83
2022-07-27T02:32:38.823Z,13.73
2022-07-27T02:35:18.502Z,12.23
2022-07-27T02:37:47.106Z,13.33
2022-07-27T02:40:17.692Z,13.07
2022-07-27T02:42:46.441Z,12.93
2022-07-27T02:45:14.918Z,13.63
2022-07-27T02:47:45.047Z,12.70
2022-07-27T02:50:12.868Z,13.00
2022-07-27T02:52:41.236Z,13.00
2022-07-27T02:55:09.845Z,12.30
2022-07-27T02:57:41.157Z,12.30
2022-07-27T03:00:11.569Z,12.30
2022-07-27T03:02:39.531Z,13.47
2022-07-27T03:05:11.655Z,12.53
2022-07-27T03:07:40.254Z,13.07
2022-07-27T03:10:09.779Z,13.43
2022-07-27T03:12:37.818Z,12.67
2022-07-27T03:15:06.383Z,12.80
2022-07-27T03:17:34.429Z,13.37
2022-07-27T03:20:02.292Z,13.70
2022-07-27T03:22:34.183Z,12.87
2022-07-27T03:25:02.263Z,13.47
2022-07-27T03:27:30.349Z,13.70
2022-07-27T03:29:58.427Z,13.23
2022-07-27T03:32:26.553Z,13.50
2022-07-27T03:34:54.624Z,13.00
2022-07-27T03:37:22.455Z,12.90
2022-07-27T03:40:04.808Z,13.33
2022-07-27T03:42:32.716Z,12.73
2022-07-27T03:45:01.028Z,13.80
2022-07-27T03:47:29.513Z,13.73
2022-07-27T03:49:57.769Z,13.90
2022-07-27T03:52:25.601Z,13.67
2022-07-27T03:54:53.771Z,13.00
2022-07-27T03:57:23.152Z,14.10
2022-07-27T03:59:51.406Z,12.03
2022-07-27T04:02:19.563Z,13.60
2022-07-27T04:04:47.664Z,11.50
2022-07-27T04:07:15.492Z,11.47
2022-07-27T04:09:43.971Z,10.33
2022-07-27T04:12:14.723Z,10.63
2022-07-27T04:14:46.897Z,10.63
2022-07-27T04:17:55.208Z,10.27
2022-07-27T04:20:04.350Z,10.80
2022-07-27T04:22:33.344Z,13.03
2022-07-27T04:25:01.604Z,12.13
2022-07-27T04:27:29.861Z,12.73
2022-07-27T04:30:04.534Z,12.40
2022-07-27T04:32:38.608Z,12.53
2022-07-27T04:35:07.255Z,13.07
2022-07-27T04:37:35.121Z,15.07
2022-07-27T04:40:03.123Z,14.60
2022-07-27T04:42:30.896Z,15.67
2022-07-27T04:45:00.819Z,15.37
2022-07-27T04:47:28.819Z,16.63
2022-07-27T04:49:56.888Z,15.90
2022-07-27T04:52:27.928Z,15.40
2022-07-27T04:54:57.407Z,15.90
2022-07-27T04:57:25.302Z,21.10
2022-07-27T04:59:53.453Z,19.73
2022-07-27T05:02:23.094Z,19.10
2022-07-27T05:04:51.066Z,18.95
2022-07-27T05:07:18.972Z,19.10
2022-07-27T05:09:47.344Z,19.23
2022-07-27T05:12:15.295Z,22.80
2022-07-27T05:14:48.484Z,19.35
2022-07-27T05:17:16.361Z,21.73
2022-07-27T05:19:45.838Z,21.15
2022-07-27T05:22:14.731Z,22.73
2022-07-27T05:24:43.014Z,22.70
2022-07-27T05:27:10.786Z,23.33
2022-07-27T05:29:38.683Z,23.08
2022-07-27T05:32:07.638Z,22.60
2022-07-27T05:34:35.740Z,27.10
2022-07-27T05:37:05.907Z,28.38
2022-07-27T05:39:34.056Z,21.35
2022-07-27T05:42:02.056Z,20.85
2022-07-27T05:44:29.961Z,19.45
2022-07-27T05:46:58.949Z,17.70
2022-07-27T05:49:27.540Z,16.13
2022-07-27T05:51:55.435Z,16.20
2022-07-27T05:54:24.765Z,15.73
2022-07-27T05:56:52.723Z,16.23
2022-07-27T05:59:20.541Z,15.70
2022-07-27T06:01:49.188Z,16.63
2022-07-27T06:04:16.995Z,17.13
2022-07-27T06:07:02.262Z,17.77
2022-07-27T06:09:31.488Z,15.73
2022-07-27T06:11:59.451Z,15.52
2022-07-27T06:14:27.361Z,15.27
2022-07-27T06:16:55.472Z,15.00
2022-07-27T06:19:23.810Z,14.57
2022-07-27T06:22:04.178Z,14.52
2022-07-27T06:24:33.963Z,15.10
2022-07-27T06:27:01.758Z,13.82
2022-07-27T06:29:29.917Z,12.32
2022-07-27T06:31:57.920Z,12.85
2022-07-27T06:34:27.588Z,11.82
2022-07-27T06:36:57.253Z,12.00
2022-07-27T06:39:25.189Z,11.30
2022-07-27T06:41:58.052Z,11.60
2022-07-27T06:44:26.746Z,10.52
2022-07-27T06:46:55.064Z,10.13
2022-07-27T06:49:23.410Z,10.73
2022-07-27T06:51:51.687Z,9.52
2022-07-27T06:54:21.040Z,8.57
2022-07-27T06:56:49.324Z,9.05
2022-07-27T06:59:18.797Z,7.93
2022-07-27T07:01:48.993Z,8.07
2022-07-27T07:04:17.506Z,7.85
2022-07-27T07:06:51.352Z,7.80
2022-07-27T07:09:19.505Z,7.80
2022-07-27T07:11:47.510Z,7.70
2022-07-27T07:14:15.278Z,7.53
2022-07-27T07:16:44.697Z,8.43
2022-07-27T07:19:13.123Z,8.40
2022-07-27T07:21:41.611Z,8.20
2022-07-27T07:24:10.258Z,8.32
2022-07-27T07:26:39.519Z,8.57
2022-07-27T07:29:07.742Z,9.65
2022-07-27T07:31:36.081Z,9.25
2022-07-27T07:34:05.594Z,8.27
2022-07-27T07:36:33.703Z,10.50
2022-07-27T07:39:01.541Z,8.77
2022-07-27T07:41:29.707Z,8.10
2022-07-27T07:43:57.758Z,7.43
2022-07-27T07:46:25.955Z,8.65
2022-07-27T07:48:54.326Z,7.45
2022-07-27T07:51:23.858Z,7.95
2022-07-27T07:53:52.027Z,8.15
2022-07-27T07:56:19.869Z,7.82
2022-07-27T07:58:48.955Z,7.82
2022-07-27T08:01:17.078Z,11.35
2022-07-27T08:03:50.671Z,7.78
2022-07-27T08:06:19.170Z,8.55
2022-07-27T08:08:48.651Z,8.40
2022-07-27T08:11:16.506Z,6.57
2022-07-27T08:13:44.531Z,7.43
2022-07-27T08:16:12.471Z,8.02
2022-07-27T08:18:40.342Z,7.68
2022-07-27T08:21:08.433Z,8.43
2022-07-27T08:23:36.649Z,8.23
2022-07-27T08:26:08.119Z,7.30
2022-07-27T08:28:36.952Z,7.40
2022-07-27T08:31:13.821Z,8.80
2022-07-27T08:33:42.795Z,7.35
2022-07-27T08:36:11.042Z,8.02
2022-07-27T08:38:39.000Z,7.50
2022-07-27T08:41:09.707Z,7.78
2022-07-27T08:43:37.752Z,8.48
2022-07-27T08:46:05.738Z,8.13
2022-07-27T08:48:33.857Z,7.82
2022-07-27T08:51:01.965Z,10.50
2022-07-27T08:53:34.168Z,8.57
2022-07-27T08:56:22.786Z,8.95
2022-07-27T08:58:50.648Z,8.70
2022-07-27T09:01:18.418Z,8.88
2022-07-27T09:03:46.854Z,7.82
2022-07-27T09:06:15.163Z,7.93
2022-07-27T09:08:47.696Z,8.43
2022-07-27T09:11:20.189Z,8.52
2022-07-27T09:13:49.750Z,8.60
2022-07-27T09:16:19.806Z,7.78
2022-07-27T09:18:49.086Z,7.90
2022-07-27T09:21:18.149Z,7.93
2022-07-27T09:23:48.159Z,8.45
2022-07-27T09:26:31.113Z,8.73
2022-07-27T09:29:02.636Z,8.77
2022-07-27T09:31:30.858Z,8.68
2022-07-27T09:33:59.863Z,8.75
2022-07-27T09:36:29.501Z,7.47
2022-07-27T09:39:02.450Z,7.93
2022-07-27T09:41:40.724Z,8.02
2022-07-27T09:46:59.492Z,7.65
2022-07-27T09:49:28.907Z,9.13
2022-07-27T09:52:00.541Z,9.25
2022-07-27T09:54:29.950Z,8.52
2022-07-27T09:57:02.595Z,8.07
2022-07-27T09:59:32.303Z,8.57
2022-07-27T10:02:00.662Z,8.18
2022-07-27T10:04:28.629Z,8.45
2022-07-27T10:07:07.235Z,8.05
2022-07-27T10:09:39.676Z,8.43
2022-07-27T10:12:07.868Z,8.02
2022-07-27T10:14:38.212Z,8.00
2022-07-27T10:17:07.707Z,7.88
2022-07-27T10:19:41.140Z,9.63
2022-07-27T10:22:09.390Z,7.43
2022-07-27T10:24:37.611Z,7.60
2022-07-27T10:27:20.158Z,8.10
2022-07-27T10:29:50.476Z,8.00
2022-07-27T10:32:25.145Z,8.25
2022-07-27T10:34:53.354Z,9.18
2022-07-27T10:37:26.360Z,8.35
2022-07-27T10:40:18.585Z,7.82
2022-07-27T10:42:53.605Z,7.80
2022-07-27T10:45:24.170Z,8.35
2022-07-27T10:47:52.846Z,7.65
2022-07-27T10:50:31.933Z,7.80
2022-07-27T10:53:02.241Z,8.15
2022-07-27T10:55:57.078Z,8.00
2022-07-27T10:58:43.805Z,8.75
2022-07-27T11:01:14.797Z,8.43
2022-07-27T11:03:47.800Z,8.73
2022-07-27T11:06:32.912Z,8.20
2022-07-27T11:09:53.422Z,8.13
2022-07-27T11:11:51.496Z,8.75
2022-07-27T11:14:30.914Z,8.70
2022-07-27T11:17:32.302Z,8.88
2022-07-27T11:19:57.026Z,8.98
2022-07-27T11:23:03.261Z,8.27
2022-07-27T11:25:21.794Z,8.52
2022-07-27T11:27:50.244Z,7.20
2022-07-27T11:30:25.396Z,8.13
2022-07-27T11:32:55.144Z,8.48
2022-07-27T11:35:23.518Z,9.50
2022-07-27T11:38:01.394Z,8.63
2022-07-27T11:43:33.897Z,8.43
2022-07-27T11:46:12.685Z,8.73
2022-07-27T11:49:05.609Z,7.95
2022-07-27T11:51:35.666Z,8.02
2022-07-27T11:54:04.422Z,8.13
2022-07-27T11:56:34.049Z,8.45
2022-07-27T11:59:03.987Z,8.85
2022-07-27T12:01:33.681Z,8.63
2022-07-27T12:04:08.269Z,9.18
2022-07-27T12:06:37.356Z,8.48
2022-07-27T12:09:06.332Z,8.88
2022-07-27T12:11:47.289Z,8.10
2022-07-27T12:14:15.403Z,7.97
2022-07-27T12:16:43.870Z,8.60
2022-07-27T12:19:22.844Z,7.47
2022-07-27T12:21:53.365Z,7.93
2022-07-27T12:24:21.171Z,8.63
2022-07-27T12:27:06.380Z,7.43
2022-07-27T12:29:35.102Z,7.30
2022-07-27T12:32:04.450Z,7.57
2022-07-27T12:34:37.432Z,7.95
2022-07-27T12:37:13.411Z,7.70
2022-07-27T12:39:43.033Z,7.47
2022-07-27T12:42:11.685Z,7.65
2022-07-27T12:44:41.497Z,7.80
2022-07-27T12:47:28.146Z,7.55
2022-07-27T12:50:05.855Z,7.15
2022-07-27T12:52:34.615Z,7.38
2022-07-27T12:55:02.710Z,7.45
2022-07-27T12:57:54.217Z,7.45
2022-07-27T13:00:19.695Z,7.78
2022-07-27T13:02:47.888Z,7.55
2022-07-27T13:05:39.850Z,7.55
2022-07-27T13:08:09.496Z,7.20
2022-07-27T13:10:37.852Z,7.22
2022-07-27T13:13:06.237Z,7.40
2022-07-27T13:15:34.709Z,6.63
2022-07-27T13:18:03.935Z,7.30
2022-07-27T13:20:33.539Z,7.07
2022-07-27T13:23:01.685Z,7.20
2022-07-27T13:25:31.224Z,7.32
2022-07-27T13:27:59.214Z,7.82
2022-07-27T13:30:27.140Z,7.53
2022-07-27T13:32:55.751Z,7.47
2022-07-27T13:35:24.213Z,6.80
2022-07-27T13:37:52.125Z,7.38
2022-07-27T13:40:20.049Z,7.72
2022-07-27T13:42:49.702Z,7.20
2022-07-27T13:45:17.863Z,7.53
2022-07-27T13:47:45.827Z,7.57
2022-07-27T13:50:19.468Z,7.35
2022-07-27T13:52:49.291Z,8.23
2022-07-27T13:55:18.289Z,6.75
2022-07-27T13:57:47.921Z,6.53
2022-07-27T14:00:19.479Z,7.63
2022-07-27T14:02:47.641Z,7.18
2022-07-27T14:05:16.002Z,7.25
2022-07-27T14:07:46.436Z,6.43
2022-07-27T14:10:32.029Z,6.40
2022-07-27T14:13:08.143Z,7.30
2022-07-27T14:15:53.209Z,7.40
2022-07-27T14:18:23.480Z,8.23
2022-07-27T14:20:52.778Z,8.15
2022-07-27T14:23:21.133Z,7.63
2022-07-27T14:25:49.725Z,7.13
2022-07-27T14:28:17.534Z,7.78
2022-07-27T14:30:46.995Z,7.65
2022-07-27T14:33:15.333Z,7.25
2022-07-27T14:35:43.575Z,6.43
2022-07-27T14:38:13.217Z,6.70
2022-07-27T14:40:43.094Z,6.45
2022-07-27T14:43:10.976Z,4.47
2022-07-27T14:45:43.990Z,5.28
2022-07-27T14:48:25.032Z,4.85
2022-07-27T14:51:01.102Z,4.75
2022-07-27T14:53:29.241Z,5.28
2022-07-27T14:55:57.106Z,5.43
2022-07-27T14:58:25.281Z,6.57
2022-07-27T15:00:54.331Z,5.65
2022-07-27T15:03:24.173Z,6.75
2022-07-27T15:05:52.544Z,6.40
2022-07-27T15:08:20.608Z,7.25
2022-07-27T15:10:48.717Z,7.15
2022-07-27T15:13:18.044Z,5.93
2022-07-27T15:15:50.997Z,6.85
2022-07-27T15:18:21.119Z,6.55
2022-07-27T15:20:52.487Z,6.20
2022-07-27T15:23:20.437Z,6.00
2022-07-27T15:25:48.197Z,6.07
2022-07-27T15:28:17.081Z,6.07
2022-07-27T15:30:45.801Z,6.43
2022-07-27T15:33:13.940Z,6.75
2022-07-27T15:35:42.136Z,6.55
2022-07-27T15:38:12.052Z,5.85
2022-07-27T15:40:41.806Z,6.25
2022-07-27T15:43:11.406Z,5.97
2022-07-27T15:45:40.343Z,5.85
2022-07-27T15:48:09.350Z,6.60
2022-07-27T15:50:37.729Z,6.88
2022-07-27T15:53:05.840Z,6.22
2022-07-27T15:55:37.739Z,7.95
2022-07-27T15:58:05.978Z,5.90
2022-07-27T16:00:39.534Z,6.10
2022-07-27T16:03:08.705Z,8.48
2022-07-27T16:05:36.536Z,7.38
2022-07-27T16:08:04.439Z,6.80
2022-07-27T16:10:34.266Z,7.47
2022-07-27T16:13:05.851Z,7.22
2022-07-27T16:15:54.507Z,6.78
2022-07-27T16:18:24.773Z,9.32
2022-07-27T16:20:55.141Z,7.70
2022-07-27T16:23:23.414Z,7.47
2022-07-27T16:26:04.458Z,6.85
2022-07-27T16:28:36.634Z,8.25
2022-07-27T16:31:06.301Z,7.15
2022-07-27T16:33:34.453Z,7.53
2022-07-27T16:36:02.446Z,5.35
2022-07-27T16:38:31.338Z,5.75
2022-07-27T16:40:59.443Z,4.72
2022-07-27T16:43:37.995Z,4.60
2022-07-27T16:46:08.926Z,4.93
2022-07-27T16:48:42.041Z,5.40
2022-07-27T16:51:11.619Z,5.75
2022-07-27T16:53:39.869Z,5.32
2022-07-27T16:56:09.115Z,4.78
2022-07-27T16:58:37.607Z,5.43
2022-07-27T17:01:07.245Z,4.50
2022-07-27T17:03:36.659Z,5.28
2022-07-27T17:06:07.112Z,4.40
2022-07-27T17:08:35.856Z,4.60
2022-07-27T17:11:06.270Z,4.88
2022-07-27T17:13:35.225Z,4.15
2022-07-27T17:16:03.482Z,4.45
2022-07-27T17:18:37.182Z,4.78
2022-07-27T17:21:09.695Z,4.20
2022-07-27T17:23:39.842Z,4.55
2022-07-27T17:26:08.216Z,4.50
2022-07-27T17:28:39.699Z,4.65
2022-07-27T17:31:09.982Z,4.80
2022-07-27T17:33:38.265Z,4.78
2022-07-27T17:36:14.118Z,5.00
2022-07-27T17:38:46.159Z,5.50
2022-07-27T17:41:17.240Z,5.10
2022-07-27T17:43:49.729Z,5.85
2022-07-27T17:46:18.599Z,6.03
2022-07-27T17:48:46.643Z,6.13
2022-07-27T17:51:14.785Z,5.97
2022-07-27T17:53:42.787Z,6.82
2022-07-27T17:56:13.298Z,6.05
2022-07-27T17:58:43.110Z,6.32
2022-07-27T18:01:11.231Z,6.72
2022-07-27T18:03:40.241Z,7.57
2022-07-27T18:06:08.891Z,7.47
2022-07-27T18:08:37.518Z,7.47
2022-07-27T18:11:05.565Z,7.35
2022-07-27T18:13:38.996Z,7.50
2022-07-27T18:16:08.787Z,7.68
2022-07-27T18:18:37.380Z,7.45
2022-07-27T18:21:06.846Z,7.25
2022-07-27T18:23:35.762Z,7.18
2022-07-27T18:26:04.051Z,7.68
2022-07-27T18:28:39.012Z,7.00
2022-07-27T18:31:13.656Z,7.72
2022-07-27T18:33:45.931Z,7.50
2022-07-27T18:36:14.545Z,7.93
2022-07-27T18:38:45.033Z,6.90
2022-07-27T18:41:13.111Z,7.05
2022-07-27T18:43:40.983Z,8.13
2022-07-27T18:46:10.285Z,7.65
2022-07-27T18:48:38.991Z,8.07
2022-07-27T18:51:07.139Z,8.48
2022-07-27T18:53:35.182Z,8.07
2022-07-27T18:56:05.446Z,7.38
2022-07-27T18:58:34.189Z,7.75
2022-07-27T19:01:02.617Z,7.70
2022-07-27T19:03:32.282Z,7.70
2022-07-27T19:06:04.096Z,7.25
2022-07-27T19:08:32.210Z,7.13
2022-07-27T19:11:00.160Z,7.00
2022-07-27T19:13:28.182Z,7.28
2022-07-27T19:15:56.644Z,5.80
2022-07-27T19:18:25.266Z,7.10
2022-07-27T19:20:55.981Z,7.63
2022-07-27T19:23:25.255Z,8.93
2022-07-27T19:26:01.507Z,9.10
2022-07-27T19:28:29.637Z,7.07
2022-07-27T19:30:57.684Z,6.15
2022-07-27T19:33:26.044Z,6.72
2022-07-27T19:35:58.038Z,7.38
2022-07-27T19:38:26.108Z,9.95
2022-07-27T19:40:55.186Z,8.30
2022-07-27T19:43:23.066Z,8.93
2022-07-27T19:45:52.205Z,10.18
2022-07-27T19:48:21.621Z,9.48
2022-07-27T19:50:49.623Z,9.10
2022-07-27T19:53:19.271Z,9.55
2022-07-27T19:55:47.073Z,10.20
2022-07-27T19:58:14.902Z,8.85
2022-07-27T20:00:43.064Z,10.55
2022-07-27T20:03:11.193Z,8.80
2022-07-27T20:05:39.215Z,9.30
2022-07-27T20:08:07.502Z,8.55
2022-07-27T20:10:37.568Z,9.15
2022-07-27T20:13:05.543Z,9.27
2022-07-27T20:15:36.132Z,9.18
2022-07-27T20:18:04.188Z,9.30
2022-07-27T20:20:32.519Z,8.13
2022-07-27T20:23:00.653Z,8.77
2022-07-27T20:25:28.606Z,8.25
2022-07-27T20:27:59.185Z,7.57
2022-07-27T20:30:27.626Z,7.25
2022-07-27T20:32:56.736Z,7.70
2022-07-27T20:35:24.587Z,7.35
2022-07-27T20:38:05.220Z,7.47
2022-07-27T20:40:33.176Z,6.60
2022-07-27T20:43:02.826Z,7.03
2022-07-27T20:45:30.996Z,7.00
2022-07-27T20:47:58.901Z,6.88
2022-07-27T20:50:27.969Z,7.18
2022-07-27T20:52:56.049Z,7.10
2022-07-27T20:55:24.320Z,7.22
2022-07-27T20:57:52.629Z,7.40
2022-07-27T21:00:28.937Z,6.90
2022-07-27T21:02:57.558Z,7.78
2022-07-27T21:05:27.464Z,7.38
2022-07-27T21:07:56.249Z,7.03
2022-07-27T21:10:25.142Z,7.82
2022-07-27T21:12:53.198Z,6.57
2022-07-27T21:15:21.045Z,7.53
2022-07-27T21:17:50.955Z,8.02
2022-07-27T21:20:19.236Z,7.28
2022-07-27T21:23:07.901Z,7.03
2022-07-27T21:25:34.729Z,7.68
2022-07-27T21:28:04.907Z,7.30
2022-07-27T21:30:33.337Z,7.32
2022-07-27T21:33:03.141Z,7.57
2022-07-27T21:35:31.711Z,7.47
2022-07-27T21:38:02.253Z,8.10
2022-07-27T21:40:30.302Z,7.95
2022-07-27T21:43:02.712Z,7.70
2022-07-27T21:45:30.671Z,7.88
2022-07-27T21:47:58.484Z,7.80
2022-07-27T21:50:32.409Z,7.88
2022-07-27T21:53:00.442Z,7.63
2022-07-27T21:55:29.683Z,7.40
2022-07-27T21:57:57.562Z,7.80
2022-07-27T22:00:25.977Z,7.57
2022-07-27T22:02:55.027Z,7.68
2022-07-27T22:05:23.329Z,7.10
2022-07-27T22:07:53.419Z,6.80
2022-07-27T22:10:21.312Z,6.05
2022-07-27T22:12:49.356Z,6.22
2022-07-27T22:15:17.220Z,6.07
2022-07-27T22:17:50.099Z,5.85
2022-07-27T22:20:18.883Z,6.18
2022-07-27T22:22:47.586Z,6.03
2022-07-27T22:25:17.526Z,5.97
2022-07-27T22:27:45.659Z,6.55
2022-07-27T22:30:13.538Z,6.30
2022-07-27T22:32:41.595Z,6.60
2022-07-27T22:35:11.397Z,5.82
2022-07-27T22:37:41.296Z,5.97
2022-07-27T22:40:09.871Z,5.95
2022-07-27T22:42:39.176Z,6.55
2022-07-27T22:45:09.503Z,6.13
2022-07-27T22:47:37.300Z,5.72
2022-07-27T22:50:07.864Z,5.85
2022-07-27T22:52:43.072Z,6.32
2022-07-27T22:55:11.339Z,6.55
2022-07-27T22:57:40.900Z,5.60
2022-07-27T23:00:09.375Z,5.93
2022-07-27T23:02:37.826Z,6.53
2022-07-27T23:05:06.286Z,5.82
2022-07-27T23:07:34.705Z,6.00
2022-07-27T23:10:03.811Z,5.93
2022-07-27T23:12:32.905Z,6.68
2022-07-27T23:15:02.157Z,6.43
2022-07-27T23:17:30.397Z,5.78
2022-07-27T23:19:58.276Z,5.88
2022-07-27T23:22:27.313Z,6.43
2022-07-27T23:24:55.657Z,6.05
2022-07-27T23:27:25.943Z,5.95
2022-07-27T23:29:54.084Z,6.53
2022-07-27T23:32:24.134Z,6.15
2022-07-27T23:34:52.960Z,5.75
2022-07-27T23:37:22.847Z,6.20
2022-07-27T23:39:50.912Z,6.05
2022-07-27T23:42:18.947Z,6.40
2022-07-27T23:44:46.745Z,6.90
2022-07-27T23:47:15.686Z,7.78
2022-07-27T23:49:45.288Z,7.90
2022-07-27T23:52:13.364Z,8.00
2022-07-27T23:54:41.984Z,7.57
2022-07-27T23:57:10.084Z,8.00
2022-07-27T23:59:38.228Z,8.33
